createdAt,value
2022-11-23T00:02:31.505Z,74.12
2022-11-23T00:12:35.865Z,74.88
2022-11-23T00:22:38.916Z,75.33
2022-11-23T00:32:43.440Z,75.00
2022-11-23T00:42:46.483Z,75.48
2022-11-23T00:52:50.884Z,75.05
2022-11-23T01:02:54.039Z,75.47
2022-11-23T01:23:40.196Z,75.62
2022-11-23T01:33:44.347Z,75.46
2022-11-23T01:43:50.241Z,75.57
2022-11-23T01:53:59.047Z,75.67
2022-11-23T02:04:04.511Z,75.69
2022-11-23T02:14:09.373Z,76.03
2022-11-23T02:24:26.996Z,75.96
2022-11-23T02:34:39.990Z,75.33
2022-11-23T02:44:52.418Z,75.34
2022-11-23T02:55:00.166Z,75.00
2022-11-23T03:05:10.120Z,75.35
2022-11-23T03:15:15.412Z,75.15
2022-11-23T03:25:24.374Z,75.42
2022-11-23T03:35:35.447Z,75.55
2022-11-23T03:46:11.284Z,75.36
2022-11-23T03:56:17.609Z,75.28
2022-11-23T04:06:23.613Z,75.89
2022-11-23T04:16:42.337Z,75.50
2022-11-23T04:26:46.070Z,75.44
2022-11-23T04:36:52.466Z,75.85
2022-11-23T04:47:06.858Z,76.00
2022-11-23T05:09:01.412Z,75.42
2022-11-23T05:19:25.052Z,75.21
2022-11-23T05:29:29.439Z,74.91
2022-11-23T05:39:41.059Z,75.44
2022-11-23T05:49:49.083Z,75.29
2022-11-23T05:59:59.463Z,75.10
2022-11-23T06:10:16.049Z,74.84
2022-11-23T06:20:28.977Z,74.25
2022-11-23T06:30:40.545Z,74.26
2022-11-23T06:40:49.059Z,74.13
2022-11-23T06:50:55.343Z,73.50
2022-11-23T07:01:03.495Z,74.02
2022-11-23T07:11:13.095Z,73.82
2022-11-23T07:21:19.351Z,74.97
2022-11-23T07:31:30.940Z,76.42
2022-11-23T07:41:38.332Z,76.17
2022-11-23T07:51:48.945Z,76.33
2022-11-23T08:03:04.268Z,76.81
2022-11-23T08:13:20.333Z,75.76
2022-11-23T08:23:23.454Z,74.99
2022-11-23T08:33:28.316Z,72.63
2022-11-23T08:43:31.378Z,72.06
2022-11-23T08:53:35.827Z,71.42
2022-11-23T09:03:39.231Z,68.77
2022-11-23T09:13:43.596Z,67.54
2022-11-23T09:23:46.615Z,67.28
2022-11-23T09:33:53.515Z,66.21
2022-11-23T09:44:03.512Z,66.61
2022-11-23T09:54:15.995Z,65.55
2022-11-23T10:04:21.145Z,65.23
2022-11-23T10:14:45.914Z,64.12
2022-11-23T10:24:52.658Z,64.44
2022-11-23T10:35:03.677Z,64.42
2022-11-23T10:45:08.066Z,63.55
2022-11-23T10:55:16.945Z,63.03
2022-11-23T11:06:01.075Z,63.19
2022-11-23T11:15:57.745Z,62.61
2022-11-23T11:26:11.270Z,63.35
2022-11-23T11:36:18.891Z,63.09
2022-11-23T11:46:29.428Z,63.69
2022-11-23T11:56:39.202Z,62.36
2022-11-23T12:06:47.390Z,61.73
2022-11-23T12:17:31.556Z,62.03
2022-11-23T12:27:37.210Z,61.17
2022-11-23T12:37:50.548Z,61.60
2022-11-23T12:48:04.252Z,62.45
2022-11-23T12:58:17.053Z,61.20
2022-11-23T13:08:34.617Z,61.24
2022-11-23T13:18:51.476Z,60.67
2022-11-23T13:28:56.897Z,59.89
2022-11-23T13:39:03.169Z,59.32
2022-11-23T13:49:30.875Z,59.53
2022-11-23T13:59:35.815Z,59.76
2022-11-23T14:09:46.696Z,59.67
2022-11-23T14:20:11.240Z,61.11
2022-11-23T14:30:23.920Z,62.58
2022-11-23T14:40:31.862Z,63.67
2022-11-23T14:50:35.769Z,63.12
2022-11-23T15:00:43.496Z,63.75
2022-11-23T15:10:53.197Z,66.28
2022-11-23T15:20:59.784Z,67.56
2022-11-23T15:31:02.845Z,67.81
2022-11-23T15:41:07.591Z,68.71
2022-11-23T15:51:26.135Z,70.07
2022-11-23T16:01:31.231Z,74.04
2022-11-23T16:11:36.377Z,80.10
2022-11-23T16:21:46.053Z,79.65
2022-11-23T16:31:54.848Z,82.12
2022-11-23T16:41:59.316Z,85.45
2022-11-23T16:52:02.334Z,85.33
2022-11-23T17:02:13.563Z,86.09
2022-11-23T17:12:18.854Z,88.66
2022-11-23T17:22:23.625Z,89.07
2022-11-23T17:32:26.758Z,89.09
2022-11-23T17:42:31.108Z,89.82
2022-11-23T17:52:34.686Z,89.27
2022-11-23T18:02:39.081Z,90.22
2022-11-23T18:12:42.164Z,90.11
2022-11-23T18:22:46.463Z,88.75
2022-11-23T18:32:49.439Z,89.96
2022-11-23T18:42:53.980Z,89.37
2022-11-23T18:52:57.041Z,89.01
2022-11-23T19:03:03.218Z,87.75
2022-11-23T19:13:07.009Z,86.68
2022-11-23T19:23:12.827Z,86.85
2022-11-23T19:33:15.945Z,86.62
2022-11-23T19:43:20.322Z,86.53
2022-11-23T19:53:25.780Z,86.59
2022-11-23T20:03:35.969Z,86.96
2022-11-23T20:13:39.550Z,87.70
2022-11-23T20:23:44.991Z,87.15
2022-11-23T20:33:50.304Z,86.35
2022-11-23T20:43:56.792Z,86.94
2022-11-23T20:53:59.980Z,86.84
2022-11-23T21:04:04.168Z,87.79
2022-11-23T21:14:14.054Z,87.95
2022-11-23T21:24:22.311Z,88.23
2022-11-23T21:34:26.622Z,87.59
2022-11-23T21:44:31.295Z,88.33
2022-11-23T21:54:34.706Z,88.29
2022-11-23T22:04:39.622Z,88.40
2022-11-23T22:14:42.961Z,88.69
2022-11-23T22:24:47.751Z,88.48
2022-11-23T22:34:50.962Z,88.91
2022-11-23T22:44:55.246Z,88.02
2022-11-23T22:54:58.460Z,88.27
2022-11-23T23:05:03.028Z,88.00
2022-11-23T23:15:08.384Z,88.69
2022-11-23T23:25:12.465Z,88.74
2022-11-23T23:35:15.568Z,87.93
2022-11-23T23:45:20.014Z,87.93
2022-11-23T23:55:23.172Z,87.85
